Terminal Aerodrome Forecast
Issued by NWS Charleston, WV

Current Version | Previous Version | Text Only | Print | Product List | Glossary Off
Versions: 1 2 3 4 5 6 7 8 9 10 11 12 13 14 15 16 17 18 19 20 21 22 23 24

000
FTUS41 KRLX 261900 AAA
TAFBKW
TAF AMD
KBKW 261931Z 2620/2718 31008KT P6SM BKN010 OVC020
     FM262100 32008KT P6SM BKN020
     FM262300 32008KT P6SM SCT025
     FM270300 32005KT 3SM -SHSN BR BKN025
     FM271300 32007KT 6SM -SHSN BKN025
     FM271500 30006KT P6SM BKN028=

USA.gov is the U.S. government's official web portal to all federal, state and local government web resources and services.